Time;durP1;ratioP1;P1;durP2;ratioP2;P2;SDS_P1;SDS_P2;PMS_P1;PMS_P2;Temp;Humidity;BMP_temperature;BMP_pressure;BME280_temperature;BME280_humidity;BME280_pressure;Samples;Min_cycle;Max_cycle;Signal;HPM_P1;HPM_P2
2022/09/27 00:01:10;;;;;;;20.52;15.32;;;21.60;63.90;;;;;;5075989;28;20052;-86
2022/09/27 00:03:37;;;;;;;24.80;17.02;;;21.70;64.10;;;;;;5056192;28;20028;-84
2022/09/27 00:06:10;;;;;;;25.05;16.77;;;21.80;63.30;;;;;;5056161;28;20017;-85
2022/09/27 00:08:36;;;;;;;25.15;16.38;;;21.90;63.00;;;;;;5038371;28;20471;-86
2022/09/27 00:11:08;;;;;;;28.52;16.52;;;21.90;62.90;;;;;;5040085;28;20486;-88
2022/09/27 00:13:34;;;;;;;21.85;14.98;;;21.90;62.80;;;;;;5058078;28;20118;-85
2022/09/27 00:16:04;;;;;;;28.25;15.73;;;21.70;63.00;;;;;;5076177;28;20017;-91
2022/09/27 00:18:30;;;;;;;33.42;17.35;;;21.80;63.00;;;;;;5075662;28;20017;-87
2022/09/27 00:21:02;;;;;;;36.20;17.75;;;21.70;63.30;;;;;;5074939;28;20203;-85
2022/09/27 00:23:28;;;;;;;29.83;17.10;;;21.60;63.50;;;;;;5075451;28;20107;-91
2022/09/27 00:25:58;;;;;;;29.85;16.63;;;21.70;63.60;;;;;;5075703;28;20096;-85
2022/09/27 00:28:25;;;;;;;28.77;19.10;;;21.70;63.30;;;;;;5057896;28;20020;-91
2022/09/27 00:30:52;;;;;;;16.17;12.98;;;21.60;63.70;;;;;;5057661;28;20107;-93
2022/09/27 00:33:18;;;;;;;15.48;12.50;;;21.50;64.10;;;;;;5057532;28;20020;-90
2022/09/27 00:35:43;;;;;;;20.90;15.35;;;21.10;65.60;;;;;;5075396;28;20031;-89
2022/09/27 00:38:10;;;;;;;21.73;15.30;;;21.00;66.50;;;;;;5076214;28;20027;-86
2022/09/27 00:40:36;;;;;;;22.15;15.77;;;21.20;65.80;;;;;;5057925;28;20123;-94
2022/09/27 00:43:02;;;;;;;21.02;16.27;;;21.50;65.30;;;;;;5057071;28;20099;-86
2022/09/27 00:45:27;;;;;;;18.33;13.57;;;21.70;64.80;;;;;;5057816;28;20376;-96
2022/09/27 00:48:03;;;;;;;21.52;15.13;;;21.80;64.10;;;;;;5058618;28;20013;-96
2022/09/27 00:50:38;;;;;;;16.90;13.95;;;22.00;63.60;;;;;;5074101;28;20047;-85
2022/09/27 00:53:15;;;;;;;16.73;12.52;;;22.00;63.50;;;;;;5057732;28;20032;-96
2022/09/27 00:55:47;;;;;;;16.27;13.82;;;21.80;63.80;;;;;;5075159;28;20027;-95
2022/09/27 00:58:16;;;;;;;17.20;13.80;;;21.60;65.00;;;;;;5075323;28;20055;-86
2022/09/27 01:00:46;;;;;;;23.20;16.23;;;21.60;64.70;;;;;;5056590;28;20035;-94
2022/09/27 01:03:21;;;;;;;18.23;14.32;;;21.70;64.20;;;;;;5057520;28;20025;-96
2022/09/27 01:05:47;;;;;;;18.27;14.20;;;21.80;63.90;;;;;;5065810;28;20058;-88
2022/09/27 01:08:13;;;;;;;18.98;14.23;;;21.90;63.70;;;;;;5080839;28;20317;-87
2022/09/27 01:10:51;;;;;;;16.30;13.45;;;22.00;63.50;;;;;;5060349;28;20107;-96
2022/09/27 01:13:25;;;;;;;14.23;11.75;;;22.00;63.20;;;;;;5063387;28;20079;-87
2022/09/27 01:16:04;;;;;;;18.75;13.68;;;21.80;64.00;;;;;;5067082;28;20021;-96
2022/09/27 01:18:40;;;;;;;17.05;13.15;;;21.40;65.30;;;;;;5066189;28;20012;-91
2022/09/27 01:21:35;;;;;;;20.75;15.25;;;21.50;64.40;;;;;;5065126;28;20082;-89
2022/09/27 01:24:21;;;;;;;16.63;13.32;;;21.60;64.70;;;;;;5087379;28;20063;-94
2022/09/27 01:27:24;;;;;;;18.20;13.23;;;21.80;64.00;;;;;;5071317;28;20032;-94
2022/09/27 01:30:20;;;;;;;18.33;13.48;;;21.90;63.40;;;;;;5042131;28;20051;-91
2022/09/27 01:33:28;;;;;;;17.60;13.70;;;22.00;63.40;;;;;;5037126;28;20021;-92
2022/09/27 01:36:16;;;;;;;19.83;14.65;;;22.00;63.10;;;;;;4981704;28;20064;-94
2022/09/27 01:39:20;;;;;;;18.00;13.40;;;22.00;63.00;;;;;;5012874;28;20044;-95
2022/09/27 01:42:13;;;;;;;22.02;15.23;;;21.90;63.30;;;;;;5013250;28;20030;-92
2022/09/27 01:45:02;;;;;;;21.50;15.98;;;21.80;63.30;;;;;;4996566;28;20014;-91
2022/09/27 01:47:40;;;;;;;17.58;13.70;;;21.80;63.70;;;;;;5012113;28;20121;-91
2022/09/27 01:50:33;;;;;;;14.27;10.80;;;21.70;64.30;;;;;;4996370;28;20013;-93
2022/09/27 01:53:17;;;;;;;16.13;10.48;;;21.60;64.50;;;;;;4996209;28;20034;-90
2022/09/27 01:55:45;;;;;;;14.60;10.73;;;20.60;66.70;;;;;;4994087;28;20038;-91
2022/09/27 01:58:20;;;;;;;16.98;12.05;;;20.30;68.40;;;;;;4996202;28;20104;-89
2022/09/27 02:00:49;;;;;;;17.85;12.43;;;20.70;67.40;;;;;;4996211;28;20038;-93
2022/09/27 02:03:20;;;;;;;21.85;12.93;;;21.10;65.90;;;;;;4996808;28;20021;-88
2022/09/27 02:05:49;;;;;;;;;;;21.30;64.90;;;;;;4992994;28;20125;-88
2022/09/27 02:08:40;;;;;;;18.08;11.77;;;21.50;64.40;;;;;;4993049;28;19908;-89
2022/09/27 02:11:10;;;;;;;16.50;12.88;;;21.60;64.20;;;;;;4993506;28;20022;-89
2022/09/27 02:13:52;;;;;;;19.80;12.10;;;21.50;64.50;;;;;;5027583;28;20029;-89
2022/09/27 02:16:34;;;;;;;16.15;12.18;;;21.60;63.90;;;;;;5051295;28;20021;-88
2022/09/27 02:19:07;;;;;;;11.40;9.52;;;21.70;63.40;;;;;;5056163;28;20052;-92
2022/09/27 02:22:08;;;;;;;14.20;12.20;;;21.60;63.40;;;;;;5055919;28;20040;-88
2022/09/27 02:24:50;;;;;;;14.45;10.70;;;21.10;65.10;;;;;;5056302;28;20021;-88
2022/09/27 02:27:30;;;;;;;14.45;9.70;;;21.10;65.10;;;;;;5056632;28;20036;-88
2022/09/27 02:30:04;;;;;;;13.93;9.90;;;20.70;66.10;;;;;;5056374;28;20048;-94
2022/09/27 02:32:31;;;;;;;13.43;10.95;;;20.40;67.60;;;;;;5055445;28;20024;-96
2022/09/27 02:35:00;;;;;;;13.98;11.63;;;20.60;67.30;;;;;;5056079;28;20479;-87
2022/09/27 02:37:26;;;;;;;18.83;12.38;;;21.00;65.70;;;;;;5056277;28;20035;-88
2022/09/27 02:39:52;;;;;;;13.85;10.50;;;21.30;64.70;;;;;;5055848;28;20028;-88
2022/09/27 02:42:18;;;;;;;17.83;12.27;;;21.50;63.90;;;;;;5058368;28;20067;-86
2022/09/27 02:44:44;;;;;;;16.33;11.82;;;21.60;63.60;;;;;;5060224;28;20020;-87
2022/09/27 02:47:29;;;;;;;16.80;11.55;;;21.60;63.20;;;;;;5060438;28;20038;-87
2022/09/27 02:50:15;;;;;;;16.65;11.55;;;21.70;63.60;;;;;;5061468;28;20171;-91
2022/09/27 02:52:52;;;;;;;18.95;12.18;;;21.60;63.90;;;;;;5060582;28;20021;-87
2022/09/27 02:55:26;;;;;;;17.63;12.50;;;21.60;63.90;;;;;;5060866;28;20065;-89
2022/09/27 03:01:31;;;;;;;19.88;13.70;;;21.70;63.70;;;;;;5080921;28;20032;-96
2022/09/27 03:04:15;;;;;;;17.83;13.80;;;21.80;63.60;;;;;;5059837;28;20021;-88
2022/09/27 03:06:45;;;;;;;19.50;12.82;;;21.70;63.80;;;;;;5061973;28;20021;-88
2022/09/27 03:09:18;;;;;;;19.23;13.45;;;21.80;63.60;;;;;;5057180;28;20028;-89
2022/09/27 03:11:44;;;;;;;16.00;12.25;;;21.80;63.50;;;;;;5061901;28;20459;-87
2022/09/27 03:14:10;;;;;;;14.95;11.85;;;21.80;63.50;;;;;;5063711;28;20017;-88
2022/09/27 03:16:36;;;;;;;17.80;12.55;;;21.80;63.70;;;;;;5063499;28;20107;-87
2022/09/27 03:19:01;;;;;;;18.55;13.73;;;21.90;63.70;;;;;;5060337;28;20039;-90
2022/09/27 03:21:28;;;;;;;20.73;13.13;;;21.90;63.80;;;;;;5061661;28;20079;-87
2022/09/27 03:23:53;;;;;;;18.48;12.77;;;22.00;63.70;;;;;;5063209;28;20048;-85
2022/09/27 03:26:20;;;;;;;19.52;14.05;;;22.00;63.70;;;;;;5060758;28;20047;-94
2022/09/27 03:28:45;;;;;;;19.83;13.93;;;21.90;63.70;;;;;;5059520;28;20025;-89
2022/09/27 03:31:11;;;;;;;27.48;14.32;;;21.90;63.70;;;;;;5059537;28;20021;-84
2022/09/27 03:33:37;;;;;;;21.63;15.20;;;21.90;63.90;;;;;;5059383;28;20021;-96
2022/09/27 03:36:03;;;;;;;19.30;14.68;;;21.90;64.00;;;;;;5060185;28;20020;-87
2022/09/27 03:38:28;;;;;;;23.08;15.50;;;21.80;64.40;;;;;;5060185;28;20021;-85
2022/09/27 03:40:54;;;;;;;27.33;17.00;;;21.70;64.50;;;;;;5060707;28;20066;-87
2022/09/27 03:43:20;;;;;;;26.50;16.55;;;21.90;64.00;;;;;;5061442;28;20027;-87
2022/09/27 03:45:46;;;;;;;29.52;18.55;;;22.00;64.00;;;;;;5061241;28;20478;-86
2022/09/27 03:48:13;;;;;;;19.98;14.88;;;22.10;63.80;;;;;;5058610;28;20017;-95
2022/09/27 03:50:38;;;;;;;25.13;16.95;;;22.10;63.80;;;;;;5058757;28;20426;-86
2022/09/27 03:53:04;;;;;;;21.17;14.55;;;22.10;63.70;;;;;;5058923;28;20013;-86
2022/09/27 03:55:30;;;;;;;25.90;16.17;;;22.10;63.40;;;;;;5078702;28;20025;-85
2022/09/27 03:57:56;;;;;;;31.73;17.95;;;22.10;63.40;;;;;;5059393;28;20017;-86
2022/09/27 04:00:23;;;;;;;24.52;20.08;;;22.10;63.60;;;;;;5060790;28;20028;-96
2022/09/27 04:02:49;;;;;;;25.95;16.38;;;22.20;63.50;;;;;;5058100;28;20025;-96
2022/09/27 04:05:15;;;;;;;24.02;16.70;;;22.20;63.30;;;;;;5058875;28;20477;-96
2022/09/27 04:07:46;;;;;;;28.52;18.13;;;22.20;63.40;;;;;;5065024;28;20013;-95
2022/09/27 04:10:12;;;;;;;35.38;20.73;;;22.30;63.30;;;;;;5063833;28;20024;-93
2022/09/27 04:12:44;;;;;;;54.15;23.95;;;22.30;63.30;;;;;;5059353;28;20029;-95
2022/09/27 04:15:10;;;;;;;45.78;22.92;;;22.30;63.10;;;;;;5059715;28;20024;-93
2022/09/27 04:17:37;;;;;;;50.05;23.88;;;22.30;63.20;;;;;;5061119;28;20098;-85
2022/09/27 04:20:03;;;;;;;44.00;21.90;;;22.30;63.50;;;;;;5061990;28;20410;-96
2022/09/27 04:22:29;;;;;;;38.67;19.90;;;22.30;63.50;;;;;;5057633;28;20032;-83
2022/09/27 04:24:55;;;;;;;28.60;17.60;;;22.30;63.50;;;;;;5054517;28;20037;-96
2022/09/27 04:27:21;;;;;;;27.77;17.25;;;22.30;63.50;;;;;;5038079;28;20028;-91
2022/09/27 04:29:47;;;;;;;32.55;18.38;;;22.10;64.30;;;;;;5038047;28;20512;-85
2022/09/27 04:32:14;;;;;;;38.13;20.48;;;21.60;65.60;;;;;;5038274;28;20032;-95
2022/09/27 04:37:25;;;;;;;72.13;29.50;;;21.40;66.50;;;;;;5069683;28;20090;-94
2022/09/27 04:39:51;;;;;;;59.00;26.95;;;21.50;66.00;;;;;;5076808;28;20026;-85
2022/09/27 04:42:17;;;;;;;63.75;28.25;;;21.70;65.50;;;;;;5057089;28;20043;-86
2022/09/27 04:44:43;;;;;;;51.83;25.92;;;21.80;65.20;;;;;;5058210;28;20020;-92
2022/09/27 04:47:09;;;;;;;106.03;33.88;;;21.90;65.00;;;;;;5075498;28;20016;-85
2022/09/27 04:49:35;;;;;;;62.15;29.20;;;21.90;65.10;;;;;;5059336;28;20086;-95
2022/09/27 04:52:01;;;;;;;60.55;29.98;;;22.00;64.70;;;;;;5057398;28;20015;-88
2022/09/27 04:54:28;;;;;;;74.88;28.13;;;22.10;64.70;;;;;;5059283;28;20028;-84
2022/09/27 04:56:53;;;;;;;62.17;28.27;;;22.10;64.60;;;;;;5057874;28;20047;-91
2022/09/27 04:59:20;;;;;;;62.83;26.42;;;22.20;64.40;;;;;;5057155;28;20032;-92
2022/09/27 05:01:46;;;;;;;61.72;30.73;;;22.00;64.70;;;;;;5051560;28;20476;-87
2022/09/27 05:04:11;;;;;;;79.28;33.63;;;22.00;64.80;;;;;;5053335;28;20028;-84
2022/09/27 05:06:37;;;;;;;56.50;31.00;;;22.00;64.80;;;;;;5051589;28;20023;-90
2022/09/27 05:09:03;;;;;;;82.78;34.53;;;21.90;64.90;;;;;;5056598;28;20107;-92
2022/09/27 05:11:29;;;;;;;70.25;31.73;;;21.80;65.10;;;;;;5057895;28;20031;-91
2022/09/27 05:13:54;;;;;;;69.10;32.92;;;21.80;64.80;;;;;;5055383;28;20031;-93
2022/09/27 05:16:20;;;;;;;58.92;31.25;;;21.60;66.20;;;;;;5056737;28;20020;-93
2022/09/27 05:18:46;;;;;;;76.82;34.42;;;21.40;66.50;;;;;;5056399;28;20367;-86
2022/09/27 05:21:12;;;;;;;93.75;34.95;;;21.50;66.10;;;;;;5056945;28;20053;-82
2022/09/27 05:23:38;;;;;;;86.38;36.42;;;21.70;65.60;;;;;;5056843;28;20028;-83
2022/09/27 05:26:05;;;;;;;89.05;36.35;;;21.90;65.20;;;;;;5049883;28;20127;-88
2022/09/27 05:28:31;;;;;;;54.25;31.13;;;21.70;65.60;;;;;;5047242;28;20017;-86
2022/09/27 05:30:57;;;;;;;59.53;32.50;;;21.70;65.40;;;;;;5039903;28;20479;-85
2022/09/27 05:33:23;;;;;;;89.30;35.78;;;21.40;66.80;;;;;;5051816;28;20103;-87
2022/09/27 05:35:56;;;;;;;80.15;34.88;;;21.20;67.00;;;;;;5051432;28;20017;-89
2022/09/27 05:38:24;;;;;;;69.10;29.85;;;21.40;66.40;;;;;;5046788;28;20017;-86
2022/09/27 05:40:50;;;;;;;47.75;27.90;;;21.50;66.60;;;;;;5048581;28;20028;-84
2022/09/27 05:43:17;;;;;;;50.88;25.52;;;21.40;66.40;;;;;;5074231;28;20024;-84
2022/09/27 05:45:43;;;;;;;39.97;22.83;;;20.60;67.90;;;;;;5050489;28;20025;-93
2022/09/27 05:48:11;;;;;;;36.25;21.58;;;19.80;70.10;;;;;;5043148;28;20112;-93
2022/09/27 05:50:37;;;;;;;43.70;24.40;;;19.60;72.10;;;;;;5042422;28;20027;-92
2022/09/27 05:53:03;;;;;;;38.63;23.33;;;19.50;72.30;;;;;;5040967;28;20008;-89
2022/09/27 05:55:29;;;;;;;35.47;23.25;;;19.50;71.20;;;;;;5045653;28;20021;-85
2022/09/27 05:57:58;;;;;;;38.72;24.23;;;19.20;72.30;;;;;;5046542;28;20025;-82
2022/09/27 06:00:24;;;;;;;48.45;27.50;;;19.10;72.40;;;;;;5036646;28;20035;-84
2022/09/27 06:02:58;;;;;;;47.70;28.77;;;19.30;73.10;;;;;;5042560;28;20551;-86
2022/09/27 06:05:26;;;;;;;53.42;29.23;;;19.70;72.10;;;;;;5069642;28;20021;-91
2022/09/27 06:07:56;;;;;;;47.38;27.80;;;19.90;71.40;;;;;;5046304;28;20028;-89
2022/09/27 06:10:22;;;;;;;;;;;20.30;69.50;;;;;;5055360;28;20472;-89
2022/09/27 06:12:49;;;;;;;51.83;29.38;;;20.20;69.30;;;;;;5056144;28;19911;-83
2022/09/27 06:15:15;;;;;;;54.85;29.77;;;20.10;70.20;;;;;;5055265;28;20017;-90
2022/09/27 06:17:40;;;;;;;61.20;31.10;;;20.40;69.00;;;;;;5073211;28;20034;-84
2022/09/27 06:20:08;;;;;;;45.22;26.65;;;20.40;69.00;;;;;;5055411;28;20044;-86
2022/09/27 06:22:35;;;;;;;47.95;27.33;;;20.30;68.30;;;;;;5056306;28;20467;-83
2022/09/27 06:25:02;;;;;;;57.35;29.88;;;19.90;70.70;;;;;;5055443;28;20024;-85
2022/09/27 06:27:29;;;;;;;49.33;27.23;;;20.00;70.50;;;;;;5055794;28;20044;-85
2022/09/27 06:29:55;;;;;;;55.47;30.25;;;19.90;70.90;;;;;;5055474;28;20387;-88
2022/09/27 06:32:21;;;;;;;42.20;25.92;;;19.80;70.80;;;;;;5055836;28;20344;-87
2022/09/27 06:34:49;;;;;;;41.42;27.02;;;19.90;70.00;;;;;;5056000;28;20044;-84
2022/09/27 06:37:15;;;;;;;47.22;27.55;;;19.80;70.30;;;;;;5055961;28;20021;-85
2022/09/27 06:39:41;;;;;;;45.80;25.38;;;19.50;71.20;;;;;;5055642;28;20028;-87
2022/09/27 06:42:07;;;;;;;43.03;25.17;;;19.30;72.00;;;;;;5055349;28;20111;-84
2022/09/27 06:44:33;;;;;;;47.22;26.15;;;19.30;71.60;;;;;;5055661;28;20034;-87
2022/09/27 06:46:59;;;;;;;43.53;25.50;;;19.10;72.60;;;;;;5055973;28;20021;-85
2022/09/27 06:49:25;;;;;;;44.70;24.88;;;19.00;73.20;;;;;;5072542;28;20386;-85
2022/09/27 06:51:51;;;;;;;39.25;25.23;;;19.10;71.50;;;;;;5073596;28;20436;-86
2022/09/27 06:54:18;;;;;;;39.25;24.90;;;18.90;73.10;;;;;;5053588;28;20020;-88
2022/09/27 06:56:46;;;;;;;46.25;24.98;;;18.80;73.20;;;;;;5037337;28;20017;-86
2022/09/27 07:01:57;;;;;;;44.60;26.85;;;18.70;74.40;;;;;;5053312;28;20020;-84
2022/09/27 07:04:23;;;;;;;48.40;29.63;;;18.70;74.30;;;;;;5035422;28;20021;-86
2022/09/27 07:06:56;;;;;;;48.03;27.20;;;18.90;73.30;;;;;;5043172;28;20359;-84
2022/09/27 07:09:22;;;;;;;66.80;34.75;;;18.90;74.00;;;;;;5055277;28;20025;-87
2022/09/27 07:11:48;;;;;;;54.40;31.05;;;19.30;72.70;;;;;;5055132;28;20020;-88
2022/09/27 07:14:15;;;;;;;45.45;29.23;;;19.20;73.00;;;;;;5072081;28;20417;-86
2022/09/27 07:16:40;;;;;;;42.78;26.52;;;19.20;72.40;;;;;;5055583;28;20012;-87
2022/09/27 07:19:07;;;;;;;43.53;27.45;;;19.10;72.70;;;;;;5064745;28;20036;-84
2022/09/27 07:21:33;;;;;;;38.97;24.20;;;19.20;72.80;;;;;;5043583;28;20039;-86
2022/09/27 07:23:59;;;;;;;32.47;22.23;;;19.30;72.80;;;;;;5072675;28;20383;-87
2022/09/27 07:26:25;;;;;;;34.58;22.52;;;19.40;72.20;;;;;;5055084;28;20090;-85
2022/09/27 07:28:52;;;;;;;33.70;22.52;;;19.20;71.90;;;;;;5058577;28;20031;-87
2022/09/27 07:31:17;;;;;;;36.85;23.40;;;19.10;73.30;;;;;;5059269;28;20036;-86
2022/09/27 07:33:43;;;;;;;37.88;25.55;;;18.90;74.20;;;;;;5058983;28;20021;-84
2022/09/27 07:36:10;;;;;;;42.35;26.83;;;19.00;74.00;;;;;;5059305;28;20024;-85
2022/09/27 07:38:36;;;;;;;35.70;24.25;;;19.40;72.70;;;;;;5058562;28;20105;-88
2022/09/27 07:41:11;;;;;;;34.65;23.20;;;19.40;72.80;;;;;;5058772;28;20021;-88
2022/09/27 07:43:37;;;;;;;35.30;23.50;;;19.40;71.80;;;;;;5058993;28;20467;-87
2022/09/27 07:46:02;;;;;;;34.17;23.45;;;19.20;72.50;;;;;;5058796;28;20031;-86
2022/09/27 07:48:28;;;;;;;35.97;25.02;;;19.20;73.60;;;;;;5076579;28;20021;-87
2022/09/27 07:50:54;;;;;;;35.58;23.13;;;19.10;73.90;;;;;;5076538;28;20017;-87
2022/09/27 07:53:19;;;;;;;38.53;24.05;;;19.40;72.40;;;;;;5058477;28;20423;-86
2022/09/27 07:55:52;;;;;;;37.33;24.50;;;19.60;73.10;;;;;;5076262;28;20055;-86
2022/09/27 07:58:19;;;;;;;37.92;24.02;;;19.50;72.40;;;;;;5058198;28;20024;-88
2022/09/27 08:00:45;;;;;;;36.97;24.30;;;19.70;72.50;;;;;;5058452;28;20039;-86
2022/09/27 08:03:14;;;;;;;38.03;24.42;;;19.80;71.60;;;;;;5058020;28;20013;-84
2022/09/27 08:05:41;;;;;;;34.78;22.88;;;19.60;72.20;;;;;;5058081;28;20016;-89
2022/09/27 08:08:07;;;;;;;38.47;24.63;;;19.40;72.00;;;;;;5058027;28;20048;-84
2022/09/27 08:10:33;;;;;;;39.53;25.95;;;19.10;73.60;;;;;;5076015;28;20101;-88
2022/09/27 08:13:03;;;;;;;41.05;25.40;;;19.00;74.50;;;;;;5075907;28;20033;-87
2022/09/27 08:15:34;;;;;;;41.05;25.27;;;19.00;74.00;;;;;;5058377;28;20419;-91
2022/09/27 08:18:00;;;;;;;41.08;26.88;;;18.50;74.80;;;;;;5074582;28;20021;-85
2022/09/27 08:20:26;;;;;;;43.50;26.70;;;18.60;75.90;;;;;;5074213;28;20075;-86
2022/09/27 08:22:52;;;;;;;44.03;26.35;;;18.70;75.60;;;;;;5075279;28;20108;-86
2022/09/27 08:25:18;;;;;;;38.38;25.08;;;19.00;75.30;;;;;;5057585;28;20078;-88
2022/09/27 08:27:53;;;;;;;39.92;24.85;;;19.40;73.50;;;;;;5075809;28;20024;-86
2022/09/27 08:30:19;;;;;;;37.63;24.55;;;19.50;73.90;;;;;;5057544;28;20021;-92
2022/09/27 08:32:44;;;;;;;38.00;24.85;;;19.40;73.30;;;;;;5057324;28;20078;-85
2022/09/27 08:35:14;;;;;;;36.25;23.85;;;19.60;74.40;;;;;;5075280;28;20016;-84
2022/09/27 08:37:40;;;;;;;34.08;22.65;;;19.50;73.70;;;;;;5057445;28;20082;-85
2022/09/27 08:40:06;;;;;;;32.65;23.58;;;19.20;74.80;;;;;;5075490;28;20482;-85
2022/09/27 08:42:47;;;;;;;35.88;24.27;;;19.40;75.20;;;;;;5057079;28;20151;-83
2022/09/27 08:45:17;;;;;;;35.83;24.02;;;19.70;73.90;;;;;;5057295;28;20421;-81
2022/09/27 08:47:50;;;;;;;34.10;23.90;;;20.30;72.50;;;;;;5074703;28;20017;-83
2022/09/27 08:50:29;;;;;;;30.63;22.83;;;20.90;70.40;;;;;;5074662;28;20090;-86
2022/09/27 08:53:13;;;;;;;36.60;23.05;;;20.30;72.00;;;;;;5075181;28;20017;-82
2022/09/27 08:55:49;;;;;;;29.17;21.80;;;20.60;71.30;;;;;;5074582;28;20044;-83
2022/09/27 08:58:27;;;;;;;37.15;25.13;;;21.10;70.10;;;;;;5056500;28;20020;-83
2022/09/27 09:00:56;;;;;;;32.50;23.25;;;21.50;69.30;;;;;;5056708;28;20032;-85
2022/09/27 09:03:26;;;;;;;42.00;25.83;;;21.60;68.30;;;;;;5074567;28;20028;-82
2022/09/27 09:06:09;;;;;;;30.35;22.48;;;21.40;69.80;;;;;;5056405;28;20027;-82
2022/09/27 09:08:58;;;;;;;36.00;24.67;;;21.50;68.90;;;;;;5057698;28;20032;-84
2022/09/27 09:14:53;;;;;;;44.33;25.95;;;21.40;69.60;;;;;;5074473;28;20035;-82
2022/09/27 09:17:29;;;;;;;35.05;23.90;;;21.30;70.00;;;;;;5055970;28;20024;-81
2022/09/27 09:20:08;;;;;;;34.70;23.55;;;21.70;69.10;;;;;;5056220;28;20570;-81
2022/09/27 09:23:30;;;;;;;29.17;21.85;;;22.20;68.20;;;;;;5056052;28;20019;-81
2022/09/27 09:26:16;;;;;;;30.02;21.40;;;22.60;67.00;;;;;;4993402;28;20026;-85
2022/09/27 09:29:06;;;;;;;28.23;21.80;;;22.40;66.30;;;;;;4992866;28;20022;-82
2022/09/27 09:31:56;;;;;;;28.42;21.02;;;21.80;68.40;;;;;;4976799;28;20030;-82
2022/09/27 09:34:33;;;;;;;27.48;20.52;;;21.20;70.50;;;;;;4992585;28;20030;-81
2022/09/27 09:37:02;;;;;;;29.00;21.60;;;21.00;70.70;;;;;;4993130;28;20085;-83
2022/09/27 09:39:50;;;;;;;27.05;20.98;;;21.10;70.50;;;;;;4992418;28;20129;-83
2022/09/27 09:42:32;;;;;;;28.33;20.75;;;21.30;70.30;;;;;;4992545;28;20101;-82
2022/09/27 09:45:04;;;;;;;28.35;21.00;;;21.40;70.20;;;;;;4992643;28;20133;-81
2022/09/27 09:47:40;;;;;;;31.02;23.05;;;21.30;70.40;;;;;;4992442;28;20041;-81
2022/09/27 09:50:17;;;;;;;27.27;21.75;;;21.30;70.60;;;;;;4991726;28;20584;-81
2022/09/27 09:52:47;;;;;;;29.52;21.17;;;21.30;70.40;;;;;;4992011;28;20069;-81
2022/09/27 09:55:23;;;;;;;30.55;21.17;;;21.50;70.10;;;;;;4975859;28;20389;-81
2022/09/27 09:58:18;;;;;;;28.52;21.50;;;21.70;69.60;;;;;;5052890;28;20367;-81
2022/09/27 10:00:46;;;;;;;31.90;23.55;;;21.90;69.30;;;;;;5073314;28;20422;-81
2022/09/27 10:03:11;;;;;;;44.58;26.77;;;22.30;68.60;;;;;;5073368;28;20097;-81
2022/09/27 10:05:37;;;;;;;30.77;22.92;;;22.70;67.60;;;;;;5073153;28;20405;-84
2022/09/27 10:08:11;;;;;;;31.05;20.33;;;22.90;66.10;;;;;;5073554;28;20016;-81
2022/09/27 10:10:37;;;;;;;41.08;26.92;;;22.60;67.10;;;;;;5054801;28;20024;-81
2022/09/27 10:13:03;;;;;;;29.95;21.52;;;22.70;67.30;;;;;;5055333;28;20021;-83
2022/09/27 10:15:29;;;;;;;29.90;22.17;;;23.00;66.60;;;;;;5055114;28;20609;-81
2022/09/27 10:17:57;;;;;;;32.72;23.73;;;23.00;66.40;;;;;;5073389;28;20101;-81
2022/09/27 10:20:36;;;;;;;30.15;21.95;;;23.10;66.70;;;;;;5051841;28;20045;-81
2022/09/27 10:23:20;;;;;;;39.00;26.60;;;23.40;65.40;;;;;;5053090;28;20159;-82
2022/09/27 10:25:59;;;;;;;36.08;23.70;;;23.60;65.20;;;;;;5052581;28;20024;-80
2022/09/27 10:28:36;;;;;;;28.55;22.05;;;23.70;64.60;;;;;;5051826;28;20067;-82
2022/09/27 10:31:05;;;;;;;30.95;22.20;;;23.40;65.20;;;;;;5052571;28;20090;-82
2022/09/27 10:33:31;;;;;;;28.10;20.63;;;23.30;65.80;;;;;;5052284;28;20021;-83
2022/09/27 10:35:58;;;;;;;34.10;24.00;;;23.40;65.60;;;;;;5053093;28;20025;-81
2022/09/27 10:38:28;;;;;;;28.60;21.13;;;23.00;66.60;;;;;;5053350;28;20017;-83
2022/09/27 10:41:00;;;;;;;31.77;21.77;;;22.40;67.90;;;;;;5051885;28;20060;-82
2022/09/27 10:43:30;;;;;;;29.17;20.40;;;22.20;68.20;;;;;;5053536;28;20502;-84
2022/09/27 10:46:10;;;;;;;32.67;21.80;;;21.80;68.50;;;;;;5051748;28;20035;-81
2022/09/27 10:48:38;;;;;;;30.23;22.20;;;21.70;69.30;;;;;;5052323;28;20021;-84
2022/09/27 10:51:06;;;;;;;28.55;20.05;;;21.40;69.20;;;;;;5051920;28;20071;-85
2022/09/27 10:53:35;;;;;;;36.67;21.50;;;20.80;71.20;;;;;;5053315;28;20021;-83
2022/09/27 10:56:01;;;;;;;30.60;21.40;;;20.60;72.90;;;;;;5051858;28;20112;-86
2022/09/27 10:58:35;;;;;;;29.98;20.90;;;20.80;72.30;;;;;;5052211;28;20459;-83
2022/09/27 11:01:05;;;;;;;29.02;20.95;;;20.20;74.90;;;;;;5052335;28;20063;-90
2022/09/27 11:03:35;;;;;;;33.97;22.30;;;19.70;76.20;;;;;;5056090;28;20023;-86
2022/09/27 11:06:29;;;;;;;32.15;22.52;;;19.60;78.20;;;;;;5055947;28;20060;-86
2022/09/27 11:09:08;;;;;;;31.95;22.23;;;20.40;76.30;;;;;;5055392;28;20029;-90
2022/09/27 11:11:33;;;;;;;31.23;21.67;;;21.20;73.60;;;;;;5056676;28;20021;-88
2022/09/27 11:14:06;;;;;;;31.20;20.80;;;21.50;72.10;;;;;;5055892;28;20083;-81
2022/09/27 11:17:06;;;;;;;29.27;20.92;;;21.10;72.90;;;;;;5055662;28;20486;-83
2022/09/27 11:20:09;;;;;;;29.48;19.63;;;20.70;74.50;;;;;;5059304;28;20075;-86
2022/09/27 11:22:50;;;;;;;26.23;19.75;;;20.80;72.40;;;;;;5058709;28;20025;-83
2022/09/27 11:25:38;;;;;;;;;;;20.90;72.60;;;;;;5060003;28;20027;-81
2022/09/27 11:28:24;;;;;;;29.98;20.40;;;21.00;73.70;;;;;;5065530;28;19900;-82
2022/09/27 11:31:25;;;;;;;28.00;19.83;;;21.10;73.00;;;;;;5044644;28;20031;-81
2022/09/27 11:34:21;;;;;;;32.45;22.02;;;21.10;72.70;;;;;;5058398;28;20040;-83
2022/09/27 11:37:11;;;;;;;29.80;21.30;;;21.30;72.50;;;;;;5058431;28;20028;-84
2022/09/27 11:40:00;;;;;;;30.02;19.35;;;21.50;71.20;;;;;;5075952;28;20068;-82
2022/09/27 11:43:04;;;;;;;31.13;19.88;;;21.30;71.00;;;;;;5058183;28;20119;-83
2022/09/27 11:45:32;;;;;;;30.65;20.88;;;21.00;72.50;;;;;;4978575;28;20377;-91
2022/09/27 11:48:04;;;;;;;32.28;21.17;;;20.50;73.60;;;;;;4994840;28;20425;-84
2022/09/27 11:50:42;;;;;;;33.40;21.02;;;20.50;74.30;;;;;;4995005;28;20026;-86
2022/09/27 11:53:14;;;;;;;32.00;20.92;;;20.60;74.10;;;;;;4994570;28;20022;-82
2022/09/27 11:56:00;;;;;;;31.05;21.30;;;20.90;73.70;;;;;;4994705;28;20483;-82
2022/09/27 11:58:53;;;;;;;35.88;23.17;;;21.10;71.90;;;;;;4994599;28;20038;-83
2022/09/27 12:01:50;;;;;;;35.75;22.10;;;21.00;73.00;;;;;;4994505;28;20027;-82
2022/09/27 12:04:38;;;;;;;31.25;20.75;;;21.10;72.90;;;;;;4994328;28;20042;-82
2022/09/27 12:07:23;;;;;;;33.70;21.92;;;21.60;72.00;;;;;;4994466;28;20038;-82
2022/09/27 12:09:53;;;;;;;33.80;22.58;;;21.60;71.30;;;;;;4994464;28;20046;-84
2022/09/27 12:12:27;;;;;;;32.83;23.45;;;21.20;73.50;;;;;;4993978;28;20038;-84
2022/09/27 12:14:57;;;;;;;32.75;21.52;;;21.10;73.10;;;;;;4994605;28;20092;-82
2022/09/27 12:17:26;;;;;;;35.80;21.75;;;21.20;72.30;;;;;;4994082;28;20057;-83
2022/09/27 12:19:57;;;;;;;31.35;21.17;;;21.00;72.20;;;;;;5038671;28;20522;-84
2022/09/27 12:22:28;;;;;;;;;;;20.70;73.50;;;;;;5057953;28;20024;-84
2022/09/27 12:24:54;;;;;;;31.95;20.75;;;20.90;74.20;;;;;;5075331;28;19999;-84
2022/09/27 12:27:58;;;;;;;31.77;21.17;;;21.10;72.70;;;;;;5057510;28;20084;-86
2022/09/27 12:30:24;;;;;;;30.90;21.13;;;21.00;73.00;;;;;;5057045;28;20108;-84
2022/09/27 12:33:02;;;;;;;36.72;23.75;;;20.90;72.90;;;;;;5057207;28;20409;-83
2022/09/27 12:35:31;;;;;;;34.05;21.55;;;21.00;73.50;;;;;;5058018;28;20024;-85
2022/09/27 12:38:17;;;;;;;29.85;19.48;;;21.00;73.40;;;;;;5057454;28;20470;-83
2022/09/27 12:40:52;;;;;;;31.10;20.88;;;20.80;73.20;;;;;;5057252;28;20029;-84
2022/09/27 12:43:20;;;;;;;31.35;21.88;;;21.10;73.50;;;;;;5057469;28;20085;-82
2022/09/27 12:46:23;;;;;;;32.72;21.73;;;21.60;72.30;;;;;;5074841;28;20036;-82
2022/09/27 12:49:11;;;;;;;33.47;22.10;;;21.90;70.50;;;;;;5057504;28;20021;-82
2022/09/27 12:51:45;;;;;;;35.00;23.27;;;21.90;71.50;;;;;;4978184;28;20470;-82
2022/09/27 12:54:41;;;;;;;31.95;21.35;;;22.20;70.00;;;;;;4994111;28;20030;-83
2022/09/27 12:57:26;;;;;;;36.08;23.20;;;22.40;70.30;;;;;;4994453;28;20033;-82
2022/09/27 13:00:05;;;;;;;37.85;22.67;;;22.30;70.00;;;;;;4993717;28;20122;-84
2022/09/27 13:03:02;;;;;;;31.73;20.88;;;22.20;70.80;;;;;;4993469;28;20488;-84
2022/09/27 13:05:55;;;;;;;31.00;21.58;;;22.30;70.00;;;;;;4993602;28;20026;-83
2022/09/27 13:08:48;;;;;;;33.95;23.23;;;22.40;70.10;;;;;;4993564;28;20035;-82